CYYL

Lynn Lake Airport

Lynn Lake, Manitoba, Canada
METAR CYYL 201504Z AUTO 34006KT 3SM -SN OVC050 M22/M24 A2994 RMK SLP181
Observed Flight Rules
Feb-20 @ 15:04 UTC (2 hours ago) Marginal Visual Flight Rules
Wind Visibility Clouds Conditions
340° at 6 knots 3 miles
  • Overcast at 5,000' AGL
  • Light Snow
Temperatures Readings
Current -22°C / -8°F
Dewpoint -24°C / -11°F
Humidity 84%
Altimeter 29.94" Hg
Pressure 1018.1 hPa
Elevation 357
METAR CYYL 201504Z AUTO 34006KT 3SM -SN OVC050 M22/M24 A2994 RMK SLP181
Observed Flight Rules
Feb-20 @ 15:04 UTC
(2 hours ago)
MVFR
Wind Visibility
340° at 6 knots 3 miles
Clouds
  • Overcast at 5,000' AGL
Conditions
  • Light Snow
Temperature Dewpoint
-22°C / -8°F -24°C / -11°F
Humidity Altimeter Pressure
84% 29.94" Hg 1018.1 hPa